sensor_id;sensor_type;location;lat;lon;timestamp;temperature;humidity
67133;HTU21D;54052;53.542;49.408;2022-09-19T00:01:11;19.29;84.28
67133;HTU21D;54052;53.542;49.408;2022-09-19T00:03:39;19.29;84.24
67133;HTU21D;54052;53.542;49.408;2022-09-19T00:06:06;19.30;84.14
67133;HTU21D;54052;53.542;49.408;2022-09-19T00:08:33;19.28;84.20
67133;HTU21D;54052;53.542;49.408;2022-09-19T00:11:02;19.23;84.32
67133;HTU21D;54052;53.542;49.408;2022-09-19T00:13:29;19.21;84.43
67133;HTU21D;54052;53.542;49.408;2022-09-19T00:15:57;19.21;84.52
67133;HTU21D;54052;53.542;49.408;2022-09-19T00:18:23;19.22;84.44
67133;HTU21D;54052;53.542;49.408;2022-09-19T00:20:49;19.22;84.49
67133;HTU21D;54052;53.542;49.408;2022-09-19T00:23:16;19.24;84.53
67133;HTU21D;54052;53.542;49.408;2022-09-19T00:26:07;19.28;84.26
67133;HTU21D;54052;53.542;49.408;2022-09-19T00:28:34;19.29;84.12
67133;HTU21D;54052;53.542;49.408;2022-09-19T00:31:01;19.30;84.12
67133;HTU21D;54052;53.542;49.408;2022-09-19T00:33:30;19.39;83.65
67133;HTU21D;54052;53.542;49.408;2022-09-19T00:35:58;19.39;83.51
67133;HTU21D;54052;53.542;49.408;2022-09-19T00:38:26;19.39;83.48
67133;HTU21D;54052;53.542;49.408;2022-09-19T00:40:53;19.39;83.52
67133;HTU21D;54052;53.542;49.408;2022-09-19T00:43:21;19.39;83.47
67133;HTU21D;54052;53.542;49.408;2022-09-19T00:45:47;19.42;83.28
67133;HTU21D;54052;53.542;49.408;2022-09-19T00:48:14;19.44;83.17
67133;HTU21D;54052;53.542;49.408;2022-09-19T00:50:43;19.48;82.89
67133;HTU21D;54052;53.542;49.408;2022-09-19T00:53:15;19.54;82.61
67133;HTU21D;54052;53.542;49.408;2022-09-19T00:55:42;19.60;82.32
67133;HTU21D;54052;53.542;49.408;2022-09-19T00:58:28;19.58;82.30
67133;HTU21D;54052;53.542;49.408;2022-09-19T01:00:55;19.65;81.94
67133;HTU21D;54052;53.542;49.408;2022-09-19T01:03:24;19.70;81.62
67133;HTU21D;54052;53.542;49.408;2022-09-19T01:06:19;19.73;81.48
67133;HTU21D;54052;53.542;49.408;2022-09-19T01:17:48;19.76;80.80
67133;HTU21D;54052;53.542;49.408;2022-09-19T01:29:09;19.67;80.14
67133;HTU21D;54052;53.542;49.408;2022-09-19T01:31:40;19.61;80.15
67133;HTU21D;54052;53.542;49.408;2022-09-19T01:34:17;19.58;80.05
67133;HTU21D;54052;53.542;49.408;2022-09-19T01:36:53;19.56;79.87
67133;HTU21D;54052;53.542;49.408;2022-09-19T01:39:23;19.53;79.72
67133;HTU21D;54052;53.542;49.408;2022-09-19T01:41:52;19.47;79.51
67133;HTU21D;54052;53.542;49.408;2022-09-19T01:44:23;19.48;79.04
67133;HTU21D;54052;53.542;49.408;2022-09-19T01:52:02;19.45;78.33
67133;HTU21D;54052;53.542;49.408;2022-09-19T01:57:08;19.38;78.24
67133;HTU21D;54052;53.542;49.408;2022-09-19T01:59:55;19.37;77.97
67133;HTU21D;54052;53.542;49.408;2022-09-19T02:05:26;19.41;76.93
67133;HTU21D;54052;53.542;49.408;2022-09-19T02:08:05;19.43;76.70
67133;HTU21D;54052;53.542;49.408;2022-09-19T02:10:47;19.41;76.38
67133;HTU21D;54052;53.542;49.408;2022-09-19T02:13:16;19.40;76.18
67133;HTU21D;54052;53.542;49.408;2022-09-19T02:15:48;19.42;75.77
67133;HTU21D;54052;53.542;49.408;2022-09-19T02:18:31;19.43;75.61
67133;HTU21D;54052;53.542;49.408;2022-09-19T02:21:08;19.46;75.46
67133;HTU21D;54052;53.542;49.408;2022-09-19T02:23:39;19.43;75.57
67133;HTU21D;54052;53.542;49.408;2022-09-19T02:26:14;19.41;75.67
67133;HTU21D;54052;53.542;49.408;2022-09-19T02:28:44;19.35;75.60
67133;HTU21D;54052;53.542;49.408;2022-09-19T02:31:13;19.30;75.81
67133;HTU21D;54052;53.542;49.408;2022-09-19T02:33:40;19.28;75.42
67133;HTU21D;54052;53.542;49.408;2022-09-19T02:36:25;19.28;75.46
67133;HTU21D;54052;53.542;49.408;2022-09-19T02:39:19;19.26;75.73
67133;HTU21D;54052;53.542;49.408;2022-09-19T02:47:41;19.25;75.70
67133;HTU21D;54052;53.542;49.408;2022-09-19T02:50:15;19.29;75.67
67133;HTU21D;54052;53.542;49.408;2022-09-19T02:52:43;19.38;75.52
67133;HTU21D;54052;53.542;49.408;2022-09-19T02:55:13;19.44;75.24
67133;HTU21D;54052;53.542;49.408;2022-09-19T02:57:43;19.57;75.08
67133;HTU21D;54052;53.542;49.408;2022-09-19T03:00:12;19.73;74.49
67133;HTU21D;54052;53.542;49.408;2022-09-19T03:02:43;19.87;74.03
67133;HTU21D;54052;53.542;49.408;2022-09-19T03:05:16;20.01;73.36
67133;HTU21D;54052;53.542;49.408;2022-09-19T03:08:01;20.17;73.35
67133;HTU21D;54052;53.542;49.408;2022-09-19T03:10:31;20.33;73.10
67133;HTU21D;54052;53.542;49.408;2022-09-19T03:13:04;20.47;72.89
67133;HTU21D;54052;53.542;49.408;2022-09-19T03:15:46;20.61;72.48
67133;HTU21D;54052;53.542;49.408;2022-09-19T03:18:17;20.76;72.22
67133;HTU21D;54052;53.542;49.408;2022-09-19T03:20:53;20.91;71.75
67133;HTU21D;54052;53.542;49.408;2022-09-19T03:23:31;21.00;71.29
67133;HTU21D;54052;53.542;49.408;2022-09-19T03:25:59;21.07;71.16
67133;HTU21D;54052;53.542;49.408;2022-09-19T03:28:27;21.14;70.49
67133;HTU21D;54052;53.542;49.408;2022-09-19T03:30:54;21.17;70.45
67133;HTU21D;54052;53.542;49.408;2022-09-19T03:33:25;21.22;70.20
67133;HTU21D;54052;53.542;49.408;2022-09-19T03:35:52;21.24;70.13
67133;HTU21D;54052;53.542;49.408;2022-09-19T03:38:25;21.21;70.18
67133;HTU21D;54052;53.542;49.408;2022-09-19T03:40:52;21.14;70.22
67133;HTU21D;54052;53.542;49.408;2022-09-19T03:43:18;21.04;70.57
67133;HTU21D;54052;53.542;49.408;2022-09-19T03:45:45;20.96;71.02
67133;HTU21D;54052;53.542;49.408;2022-09-19T03:48:11;20.88;71.48
67133;HTU21D;54052;53.542;49.408;2022-09-19T03:50:37;20.83;71.87
67133;HTU21D;54052;53.542;49.408;2022-09-19T03:53:03;20.74;72.38
67133;HTU21D;54052;53.542;49.408;2022-09-19T03:55:34;20.63;72.70
67133;HTU21D;54052;53.542;49.408;2022-09-19T03:58:03;20.57;73.19
67133;HTU21D;54052;53.542;49.408;2022-09-19T04:00:30;20.54;73.50
67133;HTU21D;54052;53.542;49.408;2022-09-19T04:02:57;20.51;73.47
67133;HTU21D;54052;53.542;49.408;2022-09-19T04:05:23;20.56;73.37
67133;HTU21D;54052;53.542;49.408;2022-09-19T04:07:49;20.57;73.73
67133;HTU21D;54052;53.542;49.408;2022-09-19T04:10:16;20.61;73.57
67133;HTU21D;54052;53.542;49.408;2022-09-19T04:12:42;20.72;73.19
67133;HTU21D;54052;53.542;49.408;2022-09-19T04:15:08;20.90;72.70
67133;HTU21D;54052;53.542;49.408;2022-09-19T04:17:34;21.05;72.13
67133;HTU21D;54052;53.542;49.408;2022-09-19T04:20:00;21.11;71.56
67133;HTU21D;54052;53.542;49.408;2022-09-19T04:22:26;21.11;71.62
67133;HTU21D;54052;53.542;49.408;2022-09-19T04:24:52;21.01;71.80
67133;HTU21D;54052;53.542;49.408;2022-09-19T04:27:18;20.86;72.25
67133;HTU21D;54052;53.542;49.408;2022-09-19T04:29:44;20.65;72.94
67133;HTU21D;54052;53.542;49.408;2022-09-19T04:32:11;20.63;73.11
67133;HTU21D;54052;53.542;49.408;2022-09-19T04:34:37;20.69;72.99
67133;HTU21D;54052;53.542;49.408;2022-09-19T04:37:05;20.80;72.59
67133;HTU21D;54052;53.542;49.408;2022-09-19T04:39:31;20.85;72.44
67133;HTU21D;54052;53.542;49.408;2022-09-19T04:41:57;20.87;72.48
67133;HTU21D;54052;53.542;49.408;2022-09-19T04:44:25;20.96;72.14
67133;HTU21D;54052;53.542;49.408;2022-09-19T04:46:56;21.03;71.86
67133;HTU21D;54052;53.542;49.408;2022-09-19T04:49:22;21.10;72.01
67133;HTU21D;54052;53.542;49.408;2022-09-19T04:51:48;21.17;71.88
67133;HTU21D;54052;53.542;49.408;2022-09-19T04:54:14;21.20;71.37
67133;HTU21D;54052;53.542;49.408;2022-09-19T04:56:40;21.18;71.53
67133;HTU21D;54052;53.542;49.408;2022-09-19T04:59:10;21.30;71.01
67133;HTU21D;54052;53.542;49.408;2022-09-19T05:01:39;21.37;70.93
67133;HTU21D;54052;53.542;49.408;2022-09-19T05:04:05;21.49;70.78
67133;HTU21D;54052;53.542;49.408;2022-09-19T05:06:31;21.64;70.33
67133;HTU21D;54052;53.542;49.408;2022-09-19T05:08:57;21.74;69.94
67133;HTU21D;54052;53.542;49.408;2022-09-19T05:11:24;21.92;69.61
67133;HTU21D;54052;53.542;49.408;2022-09-19T05:13:50;22.14;69.15
67133;HTU21D;54052;53.542;49.408;2022-09-19T05:16:18;22.32;68.52
67133;HTU21D;54052;53.542;49.408;2022-09-19T05:18:45;22.43;68.33
67133;HTU21D;54052;53.542;49.408;2022-09-19T05:21:13;22.48;68.04
67133;HTU21D;54052;53.542;49.408;2022-09-19T05:23:41;22.51;67.78
67133;HTU21D;54052;53.542;49.408;2022-09-19T05:26:12;22.50;68.06
67133;HTU21D;54052;53.542;49.408;2022-09-19T05:28:41;22.63;67.62
67133;HTU21D;54052;53.542;49.408;2022-09-19T05:31:07;22.73;67.30
67133;HTU21D;54052;53.542;49.408;2022-09-19T05:33:33;22.83;66.85
67133;HTU21D;54052;53.542;49.408;2022-09-19T05:36:02;22.84;66.99
67133;HTU21D;54052;53.542;49.408;2022-09-19T05:38:30;23.02;66.40
67133;HTU21D;54052;53.542;49.408;2022-09-19T05:41:01;23.01;66.59
67133;HTU21D;54052;53.542;49.408;2022-09-19T05:43:27;23.09;66.40
67133;HTU21D;54052;53.542;49.408;2022-09-19T05:45:54;23.27;66.14
67133;HTU21D;54052;53.542;49.408;2022-09-19T05:48:22;23.40;66.30
67133;HTU21D;54052;53.542;49.408;2022-09-19T05:50:49;23.53;66.14
67133;HTU21D;54052;53.542;49.408;2022-09-19T05:53:16;23.59;66.49
67133;HTU21D;54052;53.542;49.408;2022-09-19T05:56:03;23.70;65.70
67133;HTU21D;54052;53.542;49.408;2022-09-19T05:58:32;23.65;65.43
67133;HTU21D;54052;53.542;49.408;2022-09-19T06:01:09;23.66;65.40
67133;HTU21D;54052;53.542;49.408;2022-09-19T06:03:35;23.59;65.98
67133;HTU21D;54052;53.542;49.408;2022-09-19T06:06:07;23.57;66.10
67133;HTU21D;54052;53.542;49.408;2022-09-19T06:08:38;23.59;65.66
67133;HTU21D;54052;53.542;49.408;2022-09-19T06:11:05;23.46;66.10
67133;HTU21D;54052;53.542;49.408;2022-09-19T06:13:31;23.37;66.69
67133;HTU21D;54052;53.542;49.408;2022-09-19T06:16:16;23.35;66.20
67133;HTU21D;54052;53.542;49.408;2022-09-19T06:18:44;23.31;66.19
67133;HTU21D;54052;53.542;49.408;2022-09-19T06:21:11;23.24;66.22
67133;HTU21D;54052;53.542;49.408;2022-09-19T06:23:41;23.16;67.04
67133;HTU21D;54052;53.542;49.408;2022-09-19T06:26:08;23.20;66.97
67133;HTU21D;54052;53.542;49.408;2022-09-19T06:28:34;23.11;66.83
67133;HTU21D;54052;53.542;49.408;2022-09-19T06:31:02;22.94;67.87
67133;HTU21D;54052;53.542;49.408;2022-09-19T06:33:30;22.80;68.56
67133;HTU21D;54052;53.542;49.408;2022-09-19T06:35:57;22.71;68.68
67133;HTU21D;54052;53.542;49.408;2022-09-19T06:38:25;22.65;69.26
67133;HTU21D;54052;53.542;49.408;2022-09-19T06:40:51;22.54;70.48
67133;HTU21D;54052;53.542;49.408;2022-09-19T06:43:17;22.44;71.02
67133;HTU21D;54052;53.542;49.408;2022-09-19T06:45:43;22.39;71.58
67133;HTU21D;54052;53.542;49.408;2022-09-19T06:48:10;22.36;71.29
67133;HTU21D;54052;53.542;49.408;2022-09-19T06:50:36;22.35;71.78
67133;HTU21D;54052;53.542;49.408;2022-09-19T06:53:03;22.35;71.95
67133;HTU21D;54052;53.542;49.408;2022-09-19T06:55:29;22.36;71.77
67133;HTU21D;54052;53.542;49.408;2022-09-19T06:58:01;22.29;71.76
67133;HTU21D;54052;53.542;49.408;2022-09-19T07:00:31;22.16;71.84
67133;HTU21D;54052;53.542;49.408;2022-09-19T07:03:03;22.06;72.19
67133;HTU21D;54052;53.542;49.408;2022-09-19T07:05:31;21.95;72.41
67133;HTU21D;54052;53.542;49.408;2022-09-19T07:07:57;21.85;73.38
67133;HTU21D;54052;53.542;49.408;2022-09-19T07:10:23;21.73;74.91
67133;HTU21D;54052;53.542;49.408;2022-09-19T07:12:53;21.61;75.41
67133;HTU21D;54052;53.542;49.408;2022-09-19T07:15:21;21.60;75.15
67133;HTU21D;54052;53.542;49.408;2022-09-19T07:17:47;21.64;74.45
67133;HTU21D;54052;53.542;49.408;2022-09-19T07:20:13;21.67;74.72
67133;HTU21D;54052;53.542;49.408;2022-09-19T07:22:40;21.67;75.22
67133;HTU21D;54052;53.542;49.408;2022-09-19T07:25:06;21.64;76.24
67133;HTU21D;54052;53.542;49.408;2022-09-19T07:27:36;21.59;76.86
67133;HTU21D;54052;53.542;49.408;2022-09-19T07:30:03;21.50;77.82
67133;HTU21D;54052;53.542;49.408;2022-09-19T07:32:29;21.46;77.36
67133;HTU21D;54052;53.542;49.408;2022-09-19T07:34:55;21.47;77.45
67133;HTU21D;54052;53.542;49.408;2022-09-19T07:37:22;21.49;77.07
67133;HTU21D;54052;53.542;49.408;2022-09-19T07:39:48;21.58;76.60
67133;HTU21D;54052;53.542;49.408;2022-09-19T07:42:14;21.63;76.25
67133;HTU21D;54052;53.542;49.408;2022-09-19T07:44:40;21.68;76.51
67133;HTU21D;54052;53.542;49.408;2022-09-19T07:47:06;21.68;76.05
67133;HTU21D;54052;53.542;49.408;2022-09-19T07:49:51;21.74;75.76
67133;HTU21D;54052;53.542;49.408;2022-09-19T07:52:20;21.74;76.06
67133;HTU21D;54052;53.542;49.408;2022-09-19T07:54:49;21.76;75.79
67133;HTU21D;54052;53.542;49.408;2022-09-19T07:57:15;21.80;75.54
67133;HTU21D;54052;53.542;49.408;2022-09-19T07:59:42;21.82;74.89
67133;HTU21D;54052;53.542;49.408;2022-09-19T08:02:11;21.90;74.82
67133;HTU21D;54052;53.542;49.408;2022-09-19T08:04:37;21.98;74.19
67133;HTU21D;54052;53.542;49.408;2022-09-19T08:07:05;22.04;73.47
67133;HTU21D;54052;53.542;49.408;2022-09-19T08:09:31;22.10;72.39
67133;HTU21D;54052;53.542;49.408;2022-09-19T08:12:00;22.12;72.20
67133;HTU21D;54052;53.542;49.408;2022-09-19T08:14:26;22.11;72.53
67133;HTU21D;54052;53.542;49.408;2022-09-19T08:16:52;22.08;72.61
67133;HTU21D;54052;53.542;49.408;2022-09-19T08:19:19;22.09;72.41
67133;HTU21D;54052;53.542;49.408;2022-09-19T08:21:45;22.14;71.31
67133;HTU21D;54052;53.542;49.408;2022-09-19T08:24:11;22.23;71.72
67133;HTU21D;54052;53.542;49.408;2022-09-19T08:26:37;22.29;72.09
67133;HTU21D;54052;53.542;49.408;2022-09-19T08:29:03;22.32;71.63
67133;HTU21D;54052;53.542;49.408;2022-09-19T08:31:29;22.35;71.65
67133;HTU21D;54052;53.542;49.408;2022-09-19T08:33:55;22.40;71.02
67133;HTU21D;54052;53.542;49.408;2022-09-19T08:36:21;22.48;71.92
67133;HTU21D;54052;53.542;49.408;2022-09-19T08:38:48;22.57;71.26
67133;HTU21D;54052;53.542;49.408;2022-09-19T08:43:54;23.30;68.16
67133;HTU21D;54052;53.542;49.408;2022-09-19T08:47:30;23.65;66.40
67133;HTU21D;54052;53.542;49.408;2022-09-19T08:49:42;23.90;65.00
67133;HTU21D;54052;53.542;49.408;2022-09-19T08:54:44;23.96;64.03
67133;HTU21D;54052;53.542;49.408;2022-09-19T08:57:35;23.88;63.53
67133;HTU21D;54052;53.542;49.408;2022-09-19T09:00:13;23.86;63.94
67133;HTU21D;54052;53.542;49.408;2022-09-19T09:05:20;23.82;63.26
67133;HTU21D;54052;53.542;49.408;2022-09-19T09:07:58;23.86;62.60
67133;HTU21D;54052;53.542;49.408;2022-09-19T09:10:53;23.87;62.45
67133;HTU21D;54052;53.542;49.408;2022-09-19T09:16:19;23.80;60.96
67133;HTU21D;54052;53.542;49.408;2022-09-19T09:24:17;24.04;61.34
67133;HTU21D;54052;53.542;49.408;2022-09-19T09:26:46;24.19;61.66
67133;HTU21D;54052;53.542;49.408;2022-09-19T09:29:41;24.34;60.92
67133;HTU21D;54052;53.542;49.408;2022-09-19T09:32:21;24.48;60.01
67133;HTU21D;54052;53.542;49.408;2022-09-19T09:37:32;24.48;60.13
67133;HTU21D;54052;53.542;49.408;2022-09-19T09:42:56;24.46;59.73
67133;HTU21D;54052;53.542;49.408;2022-09-19T09:56:26;24.49;59.79
67133;HTU21D;54052;53.542;49.408;2022-09-19T10:01:35;24.41;59.38
67133;HTU21D;54052;53.542;49.408;2022-09-19T10:04:59;24.40;58.31
67133;HTU21D;54052;53.542;49.408;2022-09-19T10:10:30;24.54;57.58
67133;HTU21D;54052;53.542;49.408;2022-09-19T10:13:13;24.55;57.48
67133;HTU21D;54052;53.542;49.408;2022-09-19T10:15:40;24.61;57.74
67133;HTU21D;54052;53.542;49.408;2022-09-19T10:18:09;24.63;57.29
67133;HTU21D;54052;53.542;49.408;2022-09-19T10:20:50;24.68;57.00
67133;HTU21D;54052;53.542;49.408;2022-09-19T10:23:21;24.69;56.92
67133;HTU21D;54052;53.542;49.408;2022-09-19T10:25:49;24.68;56.36
67133;HTU21D;54052;53.542;49.408;2022-09-19T10:28:24;24.75;56.69
67133;HTU21D;54052;53.542;49.408;2022-09-19T10:31:00;24.87;56.09
67133;HTU21D;54052;53.542;49.408;2022-09-19T10:33:35;24.97;55.50
67133;HTU21D;54052;53.542;49.408;2022-09-19T10:36:06;25.02;54.93
67133;HTU21D;54052;53.542;49.408;2022-09-19T10:38:54;25.07;55.88
67133;HTU21D;54052;53.542;49.408;2022-09-19T10:41:22;25.07;55.19
67133;HTU21D;54052;53.542;49.408;2022-09-19T10:43:51;25.07;54.62
67133;HTU21D;54052;53.542;49.408;2022-09-19T10:46:30;25.06;54.83
67133;HTU21D;54052;53.542;49.408;2022-09-19T10:49:02;25.04;54.85
67133;HTU21D;54052;53.542;49.408;2022-09-19T10:51:41;25.10;55.44
67133;HTU21D;54052;53.542;49.408;2022-09-19T10:54:11;25.08;54.44
67133;HTU21D;54052;53.542;49.408;2022-09-19T10:56:40;25.08;55.32
67133;HTU21D;54052;53.542;49.408;2022-09-19T11:04:36;25.14;54.54
67133;HTU21D;54052;53.542;49.408;2022-09-19T11:07:14;25.18;54.95
67133;HTU21D;54052;53.542;49.408;2022-09-19T11:09:43;25.17;54.36
67133;HTU21D;54052;53.542;49.408;2022-09-19T11:12:14;25.13;54.40
67133;HTU21D;54052;53.542;49.408;2022-09-19T11:14:43;25.08;54.57
67133;HTU21D;54052;53.542;49.408;2022-09-19T11:23:38;24.59;57.10
67133;HTU21D;54052;53.542;49.408;2022-09-19T11:26:29;24.48;57.80
67133;HTU21D;54052;53.542;49.408;2022-09-19T11:34:35;24.12;59.58
67133;HTU21D;54052;53.542;49.408;2022-09-19T11:40:29;23.84;61.31
67133;HTU21D;54052;53.542;49.408;2022-09-19T11:46:14;23.57;61.98
67133;HTU21D;54052;53.542;49.408;2022-09-19T11:52:03;23.34;61.46
67133;HTU21D;54052;53.542;49.408;2022-09-19T11:58:10;23.27;62.34
67133;HTU21D;54052;53.542;49.408;2022-09-19T12:00:21;23.27;62.96
67133;HTU21D;54052;53.542;49.408;2022-09-19T12:08:18;23.40;60.28
67133;HTU21D;54052;53.542;49.408;2022-09-19T12:11:13;23.38;61.33
67133;HTU21D;54052;53.542;49.408;2022-09-19T12:13:53;23.30;62.63
67133;HTU21D;54052;53.542;49.408;2022-09-19T12:17:08;23.25;61.24
67133;HTU21D;54052;53.542;49.408;2022-09-19T12:19:23;23.24;60.81
67133;HTU21D;54052;53.542;49.408;2022-09-19T12:21:55;23.26;60.31
67133;HTU21D;54052;53.542;49.408;2022-09-19T12:24:27;23.35;59.80
67133;HTU21D;54052;53.542;49.408;2022-09-19T12:27:40;23.50;59.62
67133;HTU21D;54052;53.542;49.408;2022-09-19T12:30:16;23.62;58.03
67133;HTU21D;54052;53.542;49.408;2022-09-19T12:35:36;23.74;57.08
67133;HTU21D;54052;53.542;49.408;2022-09-19T12:54:43;23.31;59.96
67133;HTU21D;54052;53.542;49.408;2022-09-19T13:00:08;23.08;62.05
67133;HTU21D;54052;53.542;49.408;2022-09-19T13:02:45;23.01;63.31
67133;HTU21D;54052;53.542;49.408;2022-09-19T13:08:13;22.98;63.76
67133;HTU21D;54052;53.542;49.408;2022-09-19T13:10:47;22.93;64.27
67133;HTU21D;54052;53.542;49.408;2022-09-19T13:16:07;22.79;64.14
67133;HTU21D;54052;53.542;49.408;2022-09-19T13:18:35;22.76;64.51
67133;HTU21D;54052;53.542;49.408;2022-09-19T13:21:41;22.67;64.43
67133;HTU21D;54052;53.542;49.408;2022-09-19T13:24:29;22.60;64.28
67133;HTU21D;54052;53.542;49.408;2022-09-19T13:27:01;22.56;64.72
67133;HTU21D;54052;53.542;49.408;2022-09-19T13:32:04;22.41;66.14
67133;HTU21D;54052;53.542;49.408;2022-09-19T13:34:39;22.36;65.85
67133;HTU21D;54052;53.542;49.408;2022-09-19T13:40:21;22.26;66.24
67133;HTU21D;54052;53.542;49.408;2022-09-19T13:46:01;22.16;66.89
67133;HTU21D;54052;53.542;49.408;2022-09-19T13:48:47;22.09;67.26
67133;HTU21D;54052;53.542;49.408;2022-09-19T13:54:27;22.03;67.19
67133;HTU21D;54052;53.542;49.408;2022-09-19T14:04:45;21.94;67.78
67133;HTU21D;54052;53.542;49.408;2022-09-19T14:07:49;21.98;67.52
67133;HTU21D;54052;53.542;49.408;2022-09-19T14:10:32;21.96;68.29
67133;HTU21D;54052;53.542;49.408;2022-09-19T14:13:04;21.95;67.41
67133;HTU21D;54052;53.542;49.408;2022-09-19T14:18:50;21.92;67.75
67133;HTU21D;54052;53.542;49.408;2022-09-19T14:29:39;21.93;67.71
67133;HTU21D;54052;53.542;49.408;2022-09-19T14:54:22;21.66;67.93
67133;HTU21D;54052;53.542;49.408;2022-09-19T14:59:28;21.67;67.59
67133;HTU21D;54052;53.542;49.408;2022-09-19T15:02:07;21.68;67.65
67133;HTU21D;54052;53.542;49.408;2022-09-19T15:04:38;21.73;67.78
67133;HTU21D;54052;53.542;49.408;2022-09-19T15:07:05;21.74;67.93
67133;HTU21D;54052;53.542;49.408;2022-09-19T15:09:34;21.78;67.97
67133;HTU21D;54052;53.542;49.408;2022-09-19T15:12:18;21.79;68.08
67133;HTU21D;54052;53.542;49.408;2022-09-19T15:14:46;21.76;68.85
67133;HTU21D;54052;53.542;49.408;2022-09-19T15:17:18;21.74;69.20
67133;HTU21D;54052;53.542;49.408;2022-09-19T15:19:47;21.75;69.31
67133;HTU21D;54052;53.542;49.408;2022-09-19T15:22:32;21.78;70.27
67133;HTU21D;54052;53.542;49.408;2022-09-19T15:25:07;21.76;71.10
67133;HTU21D;54052;53.542;49.408;2022-09-19T15:27:49;21.68;71.45
67133;HTU21D;54052;53.542;49.408;2022-09-19T15:30:21;21.66;71.27
67133;HTU21D;54052;53.542;49.408;2022-09-19T15:33:09;21.63;71.88
67133;HTU21D;54052;53.542;49.408;2022-09-19T15:35:40;21.58;72.09
67133;HTU21D;54052;53.542;49.408;2022-09-19T15:38:13;21.52;71.99
67133;HTU21D;54052;53.542;49.408;2022-09-19T15:40:42;21.49;72.29
67133;HTU21D;54052;53.542;49.408;2022-09-19T15:43:11;21.43;73.32
67133;HTU21D;54052;53.542;49.408;2022-09-19T15:45:49;21.36;73.48
67133;HTU21D;54052;53.542;49.408;2022-09-19T15:48:33;21.34;73.56
67133;HTU21D;54052;53.542;49.408;2022-09-19T15:51:24;21.32;73.28
67133;HTU21D;54052;53.542;49.408;2022-09-19T15:53:52;21.30;73.54
67133;HTU21D;54052;53.542;49.408;2022-09-19T15:56:18;21.28;73.50
67133;HTU21D;54052;53.542;49.408;2022-09-19T15:58:55;21.28;73.21
67133;HTU21D;54052;53.542;49.408;2022-09-19T16:01:29;21.29;73.40
67133;HTU21D;54052;53.542;49.408;2022-09-19T16:04:11;21.27;73.17
67133;HTU21D;54052;53.542;49.408;2022-09-19T16:06:43;21.27;72.91
67133;HTU21D;54052;53.542;49.408;2022-09-19T16:09:39;21.27;72.93
67133;HTU21D;54052;53.542;49.408;2022-09-19T16:12:26;21.28;72.72
67133;HTU21D;54052;53.542;49.408;2022-09-19T16:23:14;21.29;72.48
67133;HTU21D;54052;53.542;49.408;2022-09-19T16:25:49;21.29;71.92
67133;HTU21D;54052;53.542;49.408;2022-09-19T16:28:34;21.33;71.25
67133;HTU21D;54052;53.542;49.408;2022-09-19T16:31:33;21.40;71.42
67133;HTU21D;54052;53.542;49.408;2022-09-19T16:34:16;21.45;71.04
67133;HTU21D;54052;53.542;49.408;2022-09-19T16:36:45;21.50;70.35
67133;HTU21D;54052;53.542;49.408;2022-09-19T16:41:44;21.61;70.03
67133;HTU21D;54052;53.542;49.408;2022-09-19T16:44:39;21.65;70.11
67133;HTU21D;54052;53.542;49.408;2022-09-19T16:47:20;21.64;69.94
67133;HTU21D;54052;53.542;49.408;2022-09-19T16:49:48;21.63;69.81
67133;HTU21D;54052;53.542;49.408;2022-09-19T16:52:21;21.60;69.91
67133;HTU21D;54052;53.542;49.408;2022-09-19T16:54:47;21.58;69.94
67133;HTU21D;54052;53.542;49.408;2022-09-19T16:57:14;21.54;69.97
67133;HTU21D;54052;53.542;49.408;2022-09-19T16:59:46;21.51;70.48
67133;HTU21D;54052;53.542;49.408;2022-09-19T17:02:23;21.45;70.90
67133;HTU21D;54052;53.542;49.408;2022-09-19T17:04:50;21.38;71.08
67133;HTU21D;54052;53.542;49.408;2022-09-19T17:07:16;21.34;71.93
67133;HTU21D;54052;53.542;49.408;2022-09-19T17:09:48;21.31;71.64
67133;HTU21D;54052;53.542;49.408;2022-09-19T17:12:16;21.28;71.67
67133;HTU21D;54052;53.542;49.408;2022-09-19T17:14:43;21.20;71.17
67133;HTU21D;54052;53.542;49.408;2022-09-19T17:17:11;21.16;70.78
67133;HTU21D;54052;53.542;49.408;2022-09-19T17:19:41;21.13;70.83
67133;HTU21D;54052;53.542;49.408;2022-09-19T17:22:18;21.08;70.26
67133;HTU21D;54052;53.542;49.408;2022-09-19T17:24:45;21.06;69.85
67133;HTU21D;54052;53.542;49.408;2022-09-19T17:27:11;21.02;69.84
67133;HTU21D;54052;53.542;49.408;2022-09-19T17:29:38;20.99;70.16
67133;HTU21D;54052;53.542;49.408;2022-09-19T17:32:06;20.98;70.16
67133;HTU21D;54052;53.542;49.408;2022-09-19T17:34:35;20.92;70.00
67133;HTU21D;54052;53.542;49.408;2022-09-19T17:37:01;20.87;70.17
67133;HTU21D;54052;53.542;49.408;2022-09-19T17:39:27;20.80;70.28
67133;HTU21D;54052;53.542;49.408;2022-09-19T17:41:53;20.73;70.52
67133;HTU21D;54052;53.542;49.408;2022-09-19T17:44:19;20.68;71.27
67133;HTU21D;54052;53.542;49.408;2022-09-19T17:46:45;20.60;71.17
67133;HTU21D;54052;53.542;49.408;2022-09-19T17:49:11;20.56;71.80
67133;HTU21D;54052;53.542;49.408;2022-09-19T17:51:38;20.49;71.81
67133;HTU21D;54052;53.542;49.408;2022-09-19T17:54:04;20.46;72.30
67133;HTU21D;54052;53.542;49.408;2022-09-19T17:56:30;20.43;72.87
67133;HTU21D;54052;53.542;49.408;2022-09-19T17:58:59;20.40;73.35
67133;HTU21D;54052;53.542;49.408;2022-09-19T18:01:26;20.39;73.29
67133;HTU21D;54052;53.542;49.408;2022-09-19T18:04:11;20.35;73.41
67133;HTU21D;54052;53.542;49.408;2022-09-19T18:06:38;20.33;74.01
67133;HTU21D;54052;53.542;49.408;2022-09-19T18:09:07;20.30;73.83
67133;HTU21D;54052;53.542;49.408;2022-09-19T18:11:34;20.28;74.25
67133;HTU21D;54052;53.542;49.408;2022-09-19T18:14:01;20.25;74.33
67133;HTU21D;54052;53.542;49.408;2022-09-19T18:16:33;20.22;74.86
67133;HTU21D;54052;53.542;49.408;2022-09-19T18:19:00;20.17;75.57
67133;HTU21D;54052;53.542;49.408;2022-09-19T18:21:26;20.13;74.93
67133;HTU21D;54052;53.542;49.408;2022-09-19T18:23:54;20.12;75.10
67133;HTU21D;54052;53.542;49.408;2022-09-19T18:26:22;20.12;75.26
67133;HTU21D;54052;53.542;49.408;2022-09-19T18:28:54;20.09;75.83
67133;HTU21D;54052;53.542;49.408;2022-09-19T18:31:21;20.05;75.76
67133;HTU21D;54052;53.542;49.408;2022-09-19T18:33:48;20.01;75.88
67133;HTU21D;54052;53.542;49.408;2022-09-19T18:36:19;19.95;76.28
67133;HTU21D;54052;53.542;49.408;2022-09-19T18:38:47;19.88;76.47
67133;HTU21D;54052;53.542;49.408;2022-09-19T18:41:15;19.82;76.61
67133;HTU21D;54052;53.542;49.408;2022-09-19T18:43:41;19.77;76.92
67133;HTU21D;54052;53.542;49.408;2022-09-19T18:46:13;19.72;77.44
67133;HTU21D;54052;53.542;49.408;2022-09-19T18:48:40;19.65;77.19
67133;HTU21D;54052;53.542;49.408;2022-09-19T18:51:18;19.54;76.90
67133;HTU21D;54052;53.542;49.408;2022-09-19T18:53:46;19.48;76.41